createdAt,value
2023-03-05T00:00:20.281Z,95.41
2023-03-05T00:02:48.157Z,95.42
2023-03-05T00:05:16.049Z,95.97
2023-03-05T00:07:45.179Z,96.39
2023-03-05T00:10:13.365Z,96.28
2023-03-05T00:12:41.490Z,97.26
2023-03-05T00:15:10.605Z,97.70
2023-03-05T00:17:38.424Z,97.67
2023-03-05T00:20:07.292Z,98.51
2023-03-05T00:22:35.553Z,98.33
2023-03-05T00:25:06.298Z,100.00
2023-03-05T00:27:34.310Z,100.00
2023-03-05T00:30:02.307Z,100.00
2023-03-05T00:32:30.796Z,100.00
2023-03-05T00:34:58.631Z,100.00
2023-03-05T00:37:26.434Z,100.00
2023-03-05T00:39:54.214Z,100.00
2023-03-05T00:42:23.479Z,100.00
2023-03-05T00:44:51.728Z,100.00
2023-03-05T00:47:19.505Z,100.00
2023-03-05T00:49:47.536Z,100.00
2023-03-05T00:52:15.365Z,100.00
2023-03-05T00:54:43.817Z,100.00
2023-03-05T00:57:11.606Z,99.52
2023-03-05T00:59:40.783Z,99.74
2023-03-05T01:02:08.575Z,98.78
2023-03-05T01:04:36.390Z,98.82
2023-03-05T01:07:06.957Z,98.33
2023-03-05T01:09:34.756Z,98.67
2023-03-05T01:12:02.540Z,98.49
2023-03-05T01:14:30.478Z,98.14
2023-03-05T01:16:59.667Z,98.23
2023-03-05T01:19:27.671Z,97.45
2023-03-05T01:21:55.936Z,98.06
2023-03-05T01:24:23.857Z,99.56
2023-03-05T01:26:52.246Z,99.06
2023-03-05T01:29:20.052Z,98.77
2023-03-05T01:31:48.094Z,99.11
2023-03-05T01:34:18.075Z,98.48
2023-03-05T01:36:45.988Z,99.27
2023-03-05T01:39:13.924Z,99.16
2023-03-05T01:41:41.773Z,99.43
2023-03-05T01:44:22.118Z,99.55
2023-03-05T01:46:50.370Z,99.91
2023-03-05T01:49:24.127Z,99.93
2023-03-05T01:52:01.712Z,100.00
2023-03-05T01:54:33.840Z,99.60
2023-03-05T01:57:07.571Z,99.72
2023-03-05T01:59:37.231Z,100.00
2023-03-05T02:02:08.009Z,100.00
2023-03-05T02:04:43.608Z,99.16
2023-03-05T02:07:12.446Z,99.54
2023-03-05T02:09:40.748Z,100.00
2023-03-05T02:12:11.363Z,100.00
2023-03-05T02:14:39.995Z,100.00
2023-03-05T02:17:08.798Z,100.00
2023-03-05T02:19:49.841Z,98.93
2023-03-05T02:22:20.551Z,100.00
2023-03-05T02:24:48.354Z,99.26
2023-03-05T02:27:17.517Z,100.00
2023-03-05T02:29:47.177Z,100.00
2023-03-05T02:32:15.227Z,100.00
2023-03-05T02:34:43.085Z,100.00
2023-03-05T02:37:11.024Z,100.00
2023-03-05T02:39:41.167Z,99.20
2023-03-05T02:42:10.342Z,99.90
2023-03-05T02:44:38.541Z,99.24
2023-03-05T02:47:06.872Z,100.00
2023-03-05T02:49:35.724Z,99.26
2023-03-05T02:52:04.435Z,99.53
2023-03-05T02:54:32.210Z,98.63
2023-03-05T02:57:01.354Z,99.25
2023-03-05T02:59:30.044Z,99.67
2023-03-05T03:01:57.969Z,99.63
2023-03-05T03:04:25.911Z,98.95
2023-03-05T03:06:53.828Z,98.33
2023-03-05T03:09:21.698Z,98.94
2023-03-05T03:11:50.378Z,98.45
2023-03-05T03:14:19.581Z,98.98
2023-03-05T03:16:47.459Z,98.36
2023-03-05T03:19:16.454Z,98.30
2023-03-05T03:21:44.242Z,98.43
2023-03-05T03:24:12.042Z,99.42
2023-03-05T03:26:39.879Z,99.55
2023-03-05T03:29:07.752Z,99.48
2023-03-05T03:31:37.127Z,99.07
2023-03-05T03:34:04.875Z,98.90
2023-03-05T03:36:32.997Z,98.88
2023-03-05T03:39:00.754Z,98.83
2023-03-05T03:41:28.537Z,100.00
2023-03-05T03:43:56.343Z,100.00
2023-03-05T03:46:31.560Z,100.00
2023-03-05T03:49:00.806Z,100.00
2023-03-05T03:51:28.692Z,100.00
2023-03-05T03:53:57.666Z,100.00
2023-03-05T03:56:25.509Z,100.00
2023-03-05T03:58:54.007Z,100.00
2023-03-05T04:01:22.608Z,100.00
2023-03-05T04:03:50.476Z,100.00
2023-03-05T04:06:19.601Z,100.00
2023-03-05T04:08:47.431Z,100.00
2023-03-05T04:11:19.264Z,100.00
2023-03-05T04:13:47.223Z,100.00
2023-03-05T04:16:16.881Z,100.00
2023-03-05T04:18:44.760Z,100.00
2023-03-05T04:21:12.697Z,100.00
2023-03-05T04:23:41.902Z,100.00
2023-03-05T04:26:09.717Z,100.00
2023-03-05T04:28:37.685Z,100.00
2023-03-05T04:31:06.221Z,100.00
2023-03-05T04:33:34.130Z,99.96
2023-03-05T04:36:02.071Z,99.91
2023-03-05T04:38:29.878Z,100.00
2023-03-05T04:40:59.040Z,99.18
2023-03-05T04:43:26.857Z,99.96
2023-03-05T04:45:56.480Z,99.51
2023-03-05T04:48:24.693Z,99.51
2023-03-05T04:50:52.598Z,100.00
2023-03-05T04:53:20.406Z,100.00
2023-03-05T04:55:53.547Z,100.00
2023-03-05T04:58:23.381Z,99.69
2023-03-05T05:00:51.206Z,100.00
2023-03-05T05:03:19.185Z,99.98
2023-03-05T05:05:47.053Z,99.14
2023-03-05T05:08:14.797Z,99.83
2023-03-05T05:10:42.560Z,100.00
2023-03-05T05:13:10.313Z,100.00
2023-03-05T05:15:41.562Z,100.00
2023-03-05T05:18:09.384Z,100.00
2023-03-05T05:20:37.208Z,100.00
2023-03-05T05:23:05.010Z,99.84
2023-03-05T05:25:33.476Z,99.35
2023-03-05T05:28:01.307Z,99.39
2023-03-05T05:30:29.122Z,100.00
2023-03-05T05:32:58.772Z,100.00
2023-03-05T05:35:26.602Z,100.00
2023-03-05T05:37:54.476Z,98.80
2023-03-05T05:40:22.631Z,99.81
2023-03-05T05:42:50.427Z,99.62
2023-03-05T05:45:18.454Z,100.00
2023-03-05T05:47:46.310Z,99.58
2023-03-05T05:50:16.439Z,100.00
2023-03-05T05:52:44.288Z,100.00
2023-03-05T05:55:13.095Z,100.00
2023-03-05T05:57:40.920Z,100.00
2023-03-05T06:00:11.606Z,100.00
2023-03-05T06:02:39.922Z,100.00
2023-03-05T06:05:09.778Z,100.00
2023-03-05T06:07:38.930Z,100.00
2023-03-05T06:10:08.254Z,100.00
2023-03-05T06:12:36.132Z,100.00
2023-03-05T06:15:04.082Z,100.00
2023-03-05T06:17:31.905Z,100.00
2023-03-05T06:19:59.832Z,100.00
2023-03-05T06:22:27.983Z,100.00
2023-03-05T06:24:57.135Z,100.00
2023-03-05T06:27:24.972Z,100.00
2023-03-05T06:29:54.132Z,100.00
2023-03-05T06:32:21.971Z,100.00
2023-03-05T06:34:49.833Z,100.00
2023-03-05T06:37:17.736Z,100.00
2023-03-05T06:39:45.936Z,100.00
2023-03-05T06:42:17.636Z,100.00
2023-03-05T06:44:47.183Z,100.00
2023-03-05T06:47:16.096Z,100.00
2023-03-05T06:49:43.896Z,100.00
2023-03-05T06:52:12.743Z,100.00
2023-03-05T06:54:40.562Z,100.00
2023-03-05T06:57:08.331Z,100.00
2023-03-05T06:59:37.463Z,100.00
2023-03-05T07:02:05.381Z,100.00
2023-03-05T07:04:33.178Z,100.00
2023-03-05T07:07:01.044Z,100.00
2023-03-05T07:09:30.651Z,100.00
2023-03-05T07:11:58.480Z,100.00
2023-03-05T07:14:26.323Z,100.00
2023-03-05T07:16:55.439Z,100.00
2023-03-05T07:19:23.304Z,100.00
2023-03-05T07:21:51.068Z,100.00
2023-03-05T07:24:18.874Z,100.00
2023-03-05T07:26:48.642Z,100.00
2023-03-05T07:29:16.800Z,100.00
2023-03-05T07:31:44.680Z,100.00
2023-03-05T07:34:13.788Z,100.00
2023-03-05T07:36:42.326Z,100.00
2023-03-05T07:39:12.520Z,100.00
2023-03-05T07:41:40.499Z,100.00
2023-03-05T07:44:08.320Z,100.00
2023-03-05T07:46:36.529Z,100.00
2023-03-05T07:49:04.825Z,100.00
2023-03-05T07:51:34.062Z,100.00
2023-03-05T07:54:01.947Z,100.00
2023-03-05T07:56:32.390Z,100.00
2023-03-05T07:59:01.307Z,100.00
2023-03-05T08:01:30.066Z,100.00
2023-03-05T08:03:57.901Z,100.00
2023-03-05T08:06:26.077Z,100.00
2023-03-05T08:08:55.604Z,100.00
2023-03-05T08:11:23.539Z,100.00
2023-03-05T08:13:51.524Z,100.00
2023-03-05T08:16:21.394Z,100.00
2023-03-05T08:18:49.528Z,100.00
2023-03-05T08:21:19.109Z,100.00
2023-03-05T08:23:47.358Z,100.00
2023-03-05T08:26:19.644Z,100.00
2023-03-05T08:28:47.857Z,100.00
2023-03-05T08:31:16.868Z,100.00
2023-03-05T08:33:44.835Z,100.00
2023-03-05T08:36:13.304Z,100.00
2023-03-05T08:38:41.894Z,100.00
2023-03-05T08:41:09.815Z,99.83
2023-03-05T08:43:39.015Z,100.00
2023-03-05T08:46:07.088Z,98.22
2023-03-05T08:48:35.449Z,97.05
2023-03-05T08:51:07.721Z,97.28
2023-03-05T08:53:35.798Z,97.82
2023-03-05T08:56:04.110Z,97.66
2023-03-05T08:58:32.373Z,97.15
2023-03-05T09:01:01.568Z,96.73
2023-03-05T09:03:29.348Z,94.78
2023-03-05T09:06:01.369Z,95.36
2023-03-05T09:08:29.327Z,93.38
2023-03-05T09:10:57.895Z,93.95
2023-03-05T09:13:25.879Z,94.04
2023-03-05T09:15:57.900Z,93.62
2023-03-05T09:18:27.538Z,93.36
2023-03-05T09:20:55.587Z,91.80
2023-03-05T09:23:24.209Z,92.94
2023-03-05T09:25:52.308Z,91.34
2023-03-05T09:28:20.154Z,91.07
2023-03-05T09:30:47.910Z,91.25
2023-03-05T09:33:15.741Z,91.18
2023-03-05T09:35:44.953Z,89.72
2023-03-05T09:38:12.808Z,89.64
2023-03-05T09:40:46.922Z,90.16
2023-03-05T09:43:27.216Z,90.07
2023-03-05T09:46:10.348Z,88.71
2023-03-05T09:48:49.243Z,88.56
2023-03-05T09:51:23.878Z,89.31
2023-03-05T09:54:02.688Z,87.28
2023-03-05T09:56:33.555Z,85.99
2023-03-05T09:59:06.759Z,84.50
2023-03-05T10:01:39.759Z,88.08
2023-03-05T10:04:12.528Z,86.47
2023-03-05T10:06:50.032Z,85.20
2023-03-05T10:09:29.300Z,85.16
2023-03-05T10:12:00.988Z,86.75
2023-03-05T10:14:31.215Z,86.27
2023-03-05T10:17:25.143Z,89.25
2023-03-05T10:20:23.546Z,91.37
2023-03-05T10:23:05.253Z,93.25
2023-03-05T10:25:51.115Z,94.95
2023-03-05T10:28:24.072Z,95.81
2023-03-05T10:31:04.852Z,95.24
2023-03-05T10:33:39.909Z,95.15
2023-03-05T10:36:30.954Z,94.49
2023-03-05T10:39:29.446Z,94.37
2023-03-05T10:42:06.110Z,92.53
2023-03-05T10:44:38.512Z,89.83
2023-03-05T10:47:15.847Z,88.41
2023-03-05T10:49:51.108Z,87.16
2023-03-05T10:52:22.167Z,86.97
2023-03-05T10:54:51.516Z,86.23
2023-03-05T10:57:20.762Z,85.93
2023-03-05T10:59:51.190Z,83.65
2023-03-05T11:02:20.968Z,83.53
2023-03-05T11:04:49.304Z,82.55
2023-03-05T11:07:38.665Z,82.84
2023-03-05T11:10:17.332Z,80.18
2023-03-05T11:12:45.958Z,76.65
2023-03-05T11:15:27.638Z,76.52
2023-03-05T11:18:16.952Z,80.43
2023-03-05T11:20:44.859Z,80.54
2023-03-05T11:23:14.913Z,78.53
2023-03-05T11:26:02.021Z,78.51
2023-03-05T11:28:34.218Z,78.77
2023-03-05T11:31:07.412Z,77.75
2023-03-05T11:33:36.687Z,79.02
2023-03-05T11:36:23.579Z,79.08
2023-03-05T11:38:54.589Z,76.50
2023-03-05T11:41:38.309Z,77.36
2023-03-05T11:44:13.652Z,77.89
2023-03-05T11:46:45.622Z,77.43
2023-03-05T11:49:17.583Z,76.96
2023-03-05T11:51:53.314Z,77.45
2023-03-05T11:54:27.929Z,75.84
2023-03-05T11:56:57.537Z,76.06
2023-03-05T11:59:30.457Z,77.04
2023-03-05T12:01:59.346Z,75.63
2023-03-05T12:04:28.442Z,74.50
2023-03-05T12:06:59.504Z,74.36
2023-03-05T12:09:37.804Z,72.87
2023-03-05T12:12:19.344Z,72.02
2023-03-05T12:14:51.383Z,72.21
2023-03-05T12:17:26.381Z,71.96
2023-03-05T12:19:59.628Z,72.06
2023-03-05T12:22:35.053Z,70.55
2023-03-05T12:25:26.753Z,69.92
2023-03-05T12:27:56.375Z,71.13
2023-03-05T12:30:59.425Z,70.03
2023-03-05T12:33:33.521Z,70.15
2023-03-05T12:36:35.944Z,71.04
2023-03-05T12:39:47.599Z,69.80
2023-03-05T12:42:58.154Z,68.76
2023-03-05T12:45:48.255Z,70.69
2023-03-05T12:48:42.361Z,68.18
2023-03-05T12:51:30.919Z,70.17
2023-03-05T12:53:59.585Z,70.05
2023-03-05T12:56:32.634Z,68.68
2023-03-05T12:59:04.548Z,69.30
2023-03-05T13:01:43.249Z,68.79
2023-03-05T13:04:19.819Z,68.77
2023-03-05T13:06:58.321Z,67.76
2023-03-05T13:09:29.627Z,67.61
2023-03-05T13:11:58.246Z,67.25
2023-03-05T13:14:44.795Z,67.20
2023-03-05T13:17:44.355Z,66.76
2023-03-05T13:20:31.764Z,65.52
2023-03-05T13:23:23.828Z,65.21
2023-03-05T13:26:03.947Z,67.09
2023-03-05T13:28:33.813Z,66.63
2023-03-05T13:31:04.887Z,67.49
2023-03-05T13:33:37.346Z,66.49
2023-03-05T13:36:06.508Z,66.51
2023-03-05T13:38:37.635Z,67.35
2023-03-05T13:41:20.531Z,67.78
2023-03-05T13:43:50.366Z,67.97
2023-03-05T13:46:30.213Z,68.14
2023-03-05T13:49:18.372Z,65.92
2023-03-05T13:51:48.798Z,65.44
2023-03-05T13:54:18.879Z,66.26
2023-03-05T13:56:52.501Z,66.13
2023-03-05T13:59:23.317Z,66.23
2023-03-05T14:01:53.441Z,64.83
2023-03-05T14:04:28.629Z,64.27
2023-03-05T14:07:00.190Z,63.14
2023-03-05T14:09:30.852Z,64.66
2023-03-05T14:12:01.990Z,63.43
2023-03-05T14:14:32.292Z,63.17
2023-03-05T14:17:22.021Z,62.46
2023-03-05T14:19:52.261Z,62.49
2023-03-05T14:22:35.517Z,63.02
2023-03-05T14:25:04.723Z,63.36
2023-03-05T14:27:35.347Z,63.51
2023-03-05T14:30:04.163Z,62.02
2023-03-05T14:32:35.679Z,62.46
2023-03-05T14:35:07.255Z,62.51
2023-03-05T14:37:37.953Z,62.98
2023-03-05T14:40:08.156Z,63.06
2023-03-05T14:42:39.176Z,62.13
2023-03-05T14:45:14.113Z,62.63
2023-03-05T14:47:42.350Z,63.64
2023-03-05T14:50:16.968Z,64.00
2023-03-05T14:52:46.331Z,63.74
2023-03-05T14:55:16.527Z,63.97
2023-03-05T14:57:45.049Z,64.09
2023-03-05T15:00:17.355Z,65.07
2023-03-05T15:02:45.407Z,64.28
2023-03-05T15:05:15.667Z,64.47
2023-03-05T15:07:45.765Z,63.60
2023-03-05T15:10:15.893Z,64.48
2023-03-05T15:12:44.325Z,64.57
2023-03-05T15:15:14.861Z,65.19
2023-03-05T15:17:47.538Z,65.51
2023-03-05T15:20:20.475Z,66.26
2023-03-05T15:22:48.684Z,66.50
2023-03-05T15:25:17.936Z,67.17
2023-03-05T15:27:46.499Z,66.86
2023-03-05T15:30:23.403Z,67.66
2023-03-05T15:32:52.083Z,68.47
2023-03-05T15:35:22.642Z,68.09
2023-03-05T15:37:51.091Z,67.36
2023-03-05T15:40:21.093Z,67.40
2023-03-05T15:42:49.683Z,68.67
2023-03-05T15:45:17.944Z,67.84
2023-03-05T15:47:45.842Z,68.58
2023-03-05T15:50:13.736Z,69.02
2023-03-05T15:52:43.806Z,69.56
2023-03-05T15:55:12.754Z,71.18
2023-03-05T15:57:45.275Z,71.64
2023-03-05T16:00:16.243Z,71.31
2023-03-05T16:02:44.276Z,72.08
2023-03-05T16:05:12.524Z,71.21
2023-03-05T16:07:47.312Z,71.06
2023-03-05T16:10:20.302Z,71.80
2023-03-05T16:12:51.137Z,70.58
2023-03-05T16:15:21.628Z,71.91
2023-03-05T16:17:52.070Z,71.45
2023-03-05T16:20:20.744Z,71.79
2023-03-05T16:22:50.544Z,71.21
2023-03-05T16:25:19.198Z,70.39
2023-03-05T16:27:47.412Z,71.64
2023-03-05T16:30:17.107Z,71.27
2023-03-05T16:32:45.509Z,71.70
2023-03-05T16:35:13.488Z,72.22
2023-03-05T16:37:42.226Z,73.08
2023-03-05T16:40:15.060Z,71.35
2023-03-05T16:42:43.990Z,72.32
2023-03-05T16:45:15.021Z,73.08
2023-03-05T16:47:43.408Z,73.50
2023-03-05T16:50:13.731Z,72.87
2023-03-05T16:52:41.796Z,73.80
2023-03-05T16:55:11.540Z,73.31
2023-03-05T16:57:40.544Z,72.00
2023-03-05T17:00:11.725Z,73.43
2023-03-05T17:02:40.457Z,72.55
2023-03-05T17:05:08.867Z,73.22
2023-03-05T17:07:36.761Z,71.87
2023-03-05T17:10:05.244Z,71.77
2023-03-05T17:12:34.621Z,72.47
2023-03-05T17:15:02.644Z,73.26
2023-03-05T17:17:31.794Z,73.11
2023-03-05T17:20:00.179Z,72.70
2023-03-05T17:22:28.437Z,72.71
2023-03-05T17:24:56.493Z,72.34
2023-03-05T17:27:24.375Z,72.83
2023-03-05T17:29:54.445Z,72.85
2023-03-05T17:32:22.595Z,73.71
2023-03-05T17:34:54.076Z,73.19
2023-03-05T17:37:22.142Z,73.10
2023-03-05T17:39:50.268Z,72.50
2023-03-05T17:42:20.506Z,72.11
2023-03-05T17:47:18.600Z,72.65
2023-03-05T17:49:46.562Z,71.75
2023-03-05T17:52:14.603Z,71.98
2023-03-05T17:54:42.435Z,72.65
2023-03-05T17:57:10.334Z,72.89
2023-03-05T17:59:38.186Z,72.28
2023-03-05T18:02:06.336Z,71.64
2023-03-05T18:04:35.726Z,73.26
2023-03-05T18:07:04.015Z,72.78
2023-03-05T18:09:32.326Z,71.94
2023-03-05T18:12:00.463Z,72.84
2023-03-05T18:14:28.465Z,72.91
2023-03-05T18:16:58.101Z,73.25
2023-03-05T18:19:26.318Z,73.82
2023-03-05T18:21:55.738Z,73.41
2023-03-05T18:24:23.850Z,73.71
2023-03-05T18:26:52.188Z,72.54
2023-03-05T18:29:20.506Z,72.97
2023-03-05T18:31:48.449Z,72.43
2023-03-05T18:34:17.604Z,73.45
2023-03-05T18:36:45.849Z,73.32
2023-03-05T18:39:16.311Z,73.37
2023-03-05T18:41:44.425Z,73.85
2023-03-05T18:44:13.418Z,73.44
2023-03-05T18:46:42.512Z,74.48
2023-03-05T18:49:10.730Z,74.83
2023-03-05T18:51:41.560Z,75.82
2023-03-05T18:54:09.503Z,75.71
2023-03-05T18:56:39.220Z,75.25
2023-03-05T18:59:07.213Z,74.96
2023-03-05T19:01:37.217Z,76.34
2023-03-05T19:04:06.348Z,77.56
2023-03-05T19:06:36.111Z,78.56
2023-03-05T19:09:09.812Z,80.85
2023-03-05T19:11:39.276Z,81.75
2023-03-05T19:14:07.341Z,81.48
2023-03-05T19:16:43.357Z,82.62
2023-03-05T19:19:16.334Z,82.22
2023-03-05T19:21:46.685Z,83.55
2023-03-05T19:24:15.205Z,84.09
2023-03-05T19:26:44.907Z,85.07
2023-03-05T19:29:13.683Z,84.84
2023-03-05T19:31:42.364Z,84.86
2023-03-05T19:34:10.568Z,85.48
2023-03-05T19:36:38.748Z,85.81
2023-03-05T19:39:08.729Z,86.48
2023-03-05T19:41:37.676Z,85.83
2023-03-05T19:44:07.663Z,86.25
2023-03-05T19:46:36.007Z,85.85
2023-03-05T19:49:04.790Z,86.24
2023-03-05T19:51:32.947Z,86.07
2023-03-05T19:54:03.467Z,85.92
2023-03-05T19:56:31.948Z,86.07
2023-03-05T19:59:00.883Z,85.57
2023-03-05T20:01:30.381Z,84.93
2023-03-05T20:04:00.347Z,83.99
2023-03-05T20:06:30.924Z,84.45
2023-03-05T20:08:59.819Z,84.00
2023-03-05T20:11:28.620Z,83.98
2023-03-05T20:13:57.523Z,83.58
2023-03-05T20:16:27.913Z,83.15
2023-03-05T20:18:58.179Z,82.75
2023-03-05T20:21:29.011Z,83.45
2023-03-05T20:23:58.774Z,83.14
2023-03-05T20:26:27.986Z,83.21
2023-03-05T20:28:57.574Z,83.09
2023-03-05T20:31:28.153Z,82.16
2023-03-05T20:33:57.388Z,82.80
2023-03-05T20:36:25.733Z,82.34
2023-03-05T20:38:53.881Z,82.87
2023-03-05T20:41:21.801Z,82.37
2023-03-05T20:43:51.600Z,82.27
2023-03-05T20:46:21.696Z,82.15
2023-03-05T20:48:51.775Z,82.62
2023-03-05T20:51:24.481Z,82.17
2023-03-05T20:53:56.726Z,82.22
2023-03-05T20:56:26.266Z,81.48
2023-03-05T20:58:55.334Z,81.65
2023-03-05T21:01:23.348Z,81.99
2023-03-05T21:03:53.611Z,81.94
2023-03-05T21:06:22.896Z,81.65
2023-03-05T21:08:51.734Z,80.50
2023-03-05T21:11:20.473Z,80.74
2023-03-05T21:13:49.048Z,80.77
2023-03-05T21:16:19.667Z,81.98
2023-03-05T21:18:48.067Z,81.75
2023-03-05T21:21:19.057Z,82.34
2023-03-05T21:23:48.577Z,81.46
2023-03-05T21:26:16.516Z,81.00
2023-03-05T21:28:44.580Z,81.88
2023-03-05T21:31:17.617Z,82.26
2023-03-05T21:33:45.565Z,82.39
2023-03-05T21:36:13.732Z,81.63
2023-03-05T21:38:41.632Z,81.89
2023-03-05T21:41:11.310Z,81.78
2023-03-05T21:43:39.131Z,82.24
2023-03-05T21:46:07.139Z,83.02
2023-03-05T21:48:35.008Z,82.90
2023-03-05T21:51:07.588Z,83.48
2023-03-05T21:53:35.523Z,83.43
2023-03-05T21:56:20.949Z,83.81
2023-03-05T21:58:51.660Z,83.37
2023-03-05T22:01:21.140Z,83.58
2023-03-05T22:03:49.908Z,82.67
2023-03-05T22:06:19.892Z,82.66
2023-03-05T22:08:48.280Z,82.89
2023-03-05T22:11:19.365Z,82.89
2023-03-05T22:13:47.594Z,83.70
2023-03-05T22:16:23.994Z,82.58
2023-03-05T22:18:52.467Z,82.87
2023-03-05T22:21:22.269Z,83.19
2023-03-05T22:23:50.717Z,83.61
2023-03-05T22:26:18.630Z,83.36
2023-03-05T22:28:47.025Z,83.76
2023-03-05T22:31:23.555Z,83.60
2023-03-05T22:33:51.676Z,83.49
2023-03-05T22:36:20.198Z,84.49
2023-03-05T22:38:48.025Z,84.48
2023-03-05T22:41:19.608Z,85.05
2023-03-05T22:43:48.080Z,84.24
2023-03-05T22:46:18.136Z,84.61
2023-03-05T22:48:48.118Z,84.68
2023-03-05T22:51:16.997Z,84.16
2023-03-05T22:53:45.063Z,84.16
2023-03-05T22:56:14.788Z,84.65
2023-03-05T22:58:43.241Z,84.82
2023-03-05T23:01:17.363Z,84.99
2023-03-05T23:03:45.208Z,84.81
2023-03-05T23:06:14.362Z,84.63
2023-03-05T23:08:42.169Z,84.46
2023-03-05T23:11:12.254Z,83.95
2023-03-05T23:13:40.308Z,84.47
2023-03-05T23:16:09.418Z,84.08
2023-03-05T23:18:37.758Z,84.20
2023-03-05T23:21:06.138Z,84.09
2023-03-05T23:23:35.438Z,85.01
2023-03-05T23:26:03.288Z,84.92
2023-03-05T23:28:31.107Z,85.89
2023-03-05T23:30:59.003Z,85.17
2023-03-05T23:33:26.807Z,85.71
2023-03-05T23:35:56.390Z,86.59
2023-03-05T23:38:25.435Z,85.67
2023-03-05T23:40:59.069Z,86.01
2023-03-05T23:43:28.627Z,86.07
2023-03-05T23:45:57.367Z,86.62
2023-03-05T23:48:26.935Z,86.37
2023-03-05T23:50:55.383Z,86.18
2023-03-05T23:53:25.386Z,86.62
2023-03-05T23:55:55.374Z,86.02
2023-03-05T23:58:23.703Z,86.23
